ORMM/BSR METAR and TAF weather

Enter ICAO airport designator
Station Type Date Time Source
ORMM METAR 2021/07/28 04:00 UTC NOAA

ORMM 280400Z 30014KT CAVOK 37/13 Q0994 NOSIG


Station Type Date Time Source
ORMM Decoded METAR 2021/07/28 04:00 UTC NOAA

Station name not available
Jul 28, 2021 - 12:00 AM EDT / 2021.07.28 0400 UTC
Wind: from the WNW (300 degrees) at 16 MPH (14 KT):0
Visibility: greater than 7 mile(s):0
Temperature: 98 F (37 C)
Heat index: 95.9 F (35.5 C):1
Dew Point: 55 F (13 C)
Relative Humidity: 23%
Pressure (altimeter): 29.35 in. Hg (0994 hPa)
ob: ORMM 280400Z 30014KT CAVOK 37/13 Q0994 NOSIG
cycle: 4

Station Type Date Time Source
ORMM TAF 2021/07/27 18:35 UTC NOAA

TAF ORMM 271700Z 2718/2818 VRB03KT CAVOK
TEMPO 2811/2815 28017KT

Example: see airport list